createdAt,value
2022-12-23T00:00:05.646Z,1067
2022-12-23T00:01:49.056Z,1062.7
2022-12-23T00:03:32.441Z,1062.2
2022-12-23T00:05:15.854Z,1060.6
2022-12-23T00:10:25.137Z,1056.5
2022-12-23T00:12:08.573Z,1054
2022-12-23T00:13:51.867Z,1052.8
2022-12-23T00:15:35.327Z,1052.5
2022-12-23T00:17:18.676Z,1049.4
2022-12-23T00:19:02.071Z,1049.3
2022-12-23T00:20:45.455Z,1050.5
2022-12-23T00:22:28.866Z,1054.5
2022-12-23T00:24:12.293Z,1056.8
2022-12-23T00:27:38.717Z,1055.5
2022-12-23T00:29:22.124Z,1050.4
2022-12-23T00:31:05.531Z,1044.2
2022-12-23T00:32:48.938Z,1040.4
2022-12-23T00:34:32.317Z,1038.8
2022-12-23T00:36:15.729Z,1036.5
2022-12-23T00:37:59.110Z,1032.8
2022-12-23T00:39:42.499Z,1033.8
2022-12-23T00:43:08.995Z,1064.8
2022-12-23T00:44:52.400Z,1073.4
2022-12-23T00:46:35.753Z,1077
2022-12-23T00:48:19.148Z,1078.3
2022-12-23T00:50:02.550Z,1082.2
2022-12-23T00:51:45.943Z,1085.7
2022-12-23T00:53:29.342Z,1090
2022-12-23T00:55:12.737Z,1093.2
2022-12-23T00:58:39.205Z,1096.3
2022-12-23T01:00:22.733Z,1092.3
2022-12-23T01:02:05.997Z,1091.7
2022-12-23T01:03:49.399Z,1090.1
2022-12-23T01:05:32.793Z,1084.8
2022-12-23T01:07:16.192Z,1083.3
2022-12-23T01:08:59.590Z,1088.4
2022-12-23T01:10:42.983Z,1091
2022-12-23T01:14:09.489Z,1090.8
2022-12-23T01:15:52.861Z,1091.4
2022-12-23T01:17:36.252Z,1092.6
2022-12-23T01:19:19.643Z,1095.2
2022-12-23T01:21:03.053Z,1097.4
2022-12-23T01:22:46.449Z,1100.2
2022-12-23T01:24:29.855Z,1100.3
2022-12-23T01:26:13.245Z,1097.2
2022-12-23T01:29:39.735Z,1097.5
2022-12-23T01:31:23.117Z,1097.1
2022-12-23T01:33:06.504Z,1098
2022-12-23T01:34:49.905Z,1098.6
2022-12-23T01:36:33.314Z,1100.5
2022-12-23T01:38:16.691Z,1099.3
2022-12-23T01:40:00.104Z,1095.7
2022-12-23T01:41:43.486Z,1091.2
2022-12-23T01:43:27.187Z,1092.1
2022-12-23T01:45:10.588Z,1093.3
2022-12-23T01:46:53.973Z,1090.7
2022-12-23T01:48:37.423Z,1093.1
2022-12-23T01:50:20.766Z,1093.1
2022-12-23T01:52:04.162Z,1091.4
2022-12-23T01:53:47.553Z,1090.2
2022-12-23T01:55:30.938Z,1088.2
2022-12-23T01:58:57.462Z,1089.4
2022-12-23T02:00:40.817Z,1085.8
2022-12-23T02:02:24.258Z,1085.4
2022-12-23T02:04:07.620Z,1083.6
2022-12-23T02:05:51.010Z,1085.2
2022-12-23T02:07:34.425Z,1086.8
2022-12-23T02:09:17.805Z,1082.7
2022-12-23T02:11:01.201Z,1081.2
2022-12-23T02:16:10.453Z,1077.8
2022-12-23T02:19:37.225Z,1074
2022-12-23T02:21:20.685Z,1079.1
2022-12-23T02:23:04.030Z,1080.2
2022-12-23T02:24:47.472Z,1079.7
2022-12-23T02:26:30.835Z,1077.3
2022-12-23T02:28:14.255Z,1080.5
2022-12-23T02:31:40.695Z,1068.2
2022-12-23T02:33:24.093Z,1063.8
2022-12-23T02:35:07.476Z,1064.5
2022-12-23T02:36:50.881Z,1065.4
2022-12-23T02:38:34.300Z,1064
2022-12-23T02:40:17.675Z,1062.5
2022-12-23T02:42:01.069Z,1063.6
2022-12-23T02:43:44.461Z,1063.3
2022-12-23T02:48:53.713Z,1054.7
2022-12-23T02:50:37.100Z,1056
2022-12-23T02:52:20.611Z,1058
2022-12-23T02:54:03.879Z,1057.1
2022-12-23T02:55:47.283Z,1054.3
2022-12-23T02:57:30.674Z,1052.3
2022-12-23T02:59:14.095Z,1051.3
2022-12-23T03:00:57.491Z,1049.2
2022-12-23T03:04:23.957Z,1053.8
2022-12-23T03:06:07.347Z,1048.6
2022-12-23T03:07:50.739Z,1044.3
2022-12-23T03:09:34.151Z,1043.8
2022-12-23T03:11:17.535Z,1043.5
2022-12-23T03:13:00.942Z,1040.6
2022-12-23T03:14:44.324Z,1042.2
2022-12-23T03:16:27.727Z,1039.7
2022-12-23T03:21:36.980Z,1040.5
2022-12-23T03:23:20.365Z,1041.1
2022-12-23T03:25:03.775Z,1038.5
2022-12-23T03:26:47.159Z,1036.1
2022-12-23T03:28:30.549Z,1033.3
2022-12-23T03:30:13.953Z,1031.6
2022-12-23T03:31:57.353Z,1032
2022-12-23T03:33:40.776Z,1030.6
2022-12-23T03:35:24.132Z,1026.4
2022-12-23T03:38:50.673Z,1025
2022-12-23T03:40:34.002Z,1024.4
2022-12-23T03:42:17.424Z,1026.8
2022-12-23T03:44:00.788Z,1028.1
2022-12-23T03:45:44.208Z,1032.8
2022-12-23T03:47:27.592Z,1031.6
2022-12-23T03:49:10.986Z,1033.8
2022-12-23T03:50:54.399Z,1032.4
2022-12-23T03:56:03.631Z,1029.6
2022-12-23T03:57:47.024Z,1028.3
2022-12-23T03:59:30.406Z,1028.2
2022-12-23T04:01:14.108Z,1030.3
2022-12-23T04:02:57.207Z,1033.4
2022-12-23T04:04:40.662Z,1030
2022-12-23T10:44:25.206Z,843.7
2022-12-23T10:46:07.160Z,847.7
2022-12-23T10:49:33.687Z,842.9
2022-12-23T10:51:17.114Z,857.3
2022-12-23T10:53:00.550Z,874.7
2022-12-23T10:54:43.903Z,885
2022-12-23T10:56:27.323Z,890.6
2022-12-23T10:58:10.705Z,901.2
2022-12-23T10:59:54.103Z,905.1
2022-12-23T11:01:37.352Z,898.6
2022-12-23T11:03:21.193Z,900.7
2022-12-23T11:05:04.604Z,908.4
2022-12-23T11:06:47.960Z,915.1
2022-12-23T11:08:31.381Z,914
2022-12-23T11:10:14.568Z,920
2022-12-23T11:11:58.129Z,933.8
2022-12-23T11:13:41.573Z,935.5
2022-12-23T11:15:24.964Z,932.8
2022-12-23T11:18:51.367Z,947.9
2022-12-23T11:20:34.861Z,947.2
2022-12-23T11:22:18.035Z,949.8
2022-12-23T11:24:01.616Z,954
2022-12-23T11:25:44.992Z,953.5
2022-12-23T11:27:28.394Z,953.8
2022-12-23T11:29:11.806Z,957.7
2022-12-23T11:30:55.278Z,963.2
2022-12-23T11:34:21.521Z,967.4
2022-12-23T11:36:05.071Z,967.6
2022-12-23T11:37:48.484Z,969.5
2022-12-23T11:39:31.822Z,965
2022-12-23T11:41:15.257Z,963
2022-12-23T11:42:58.623Z,961.1
2022-12-23T11:44:42.077Z,959.5
2022-12-23T11:46:25.252Z,961.5
2022-12-23T11:49:51.910Z,967.6
2022-12-23T11:51:35.324Z,974
2022-12-23T11:53:18.724Z,978.8
2022-12-23T11:55:02.292Z,988.4
2022-12-23T11:56:45.476Z,1001
2022-12-23T11:58:28.956Z,1010
2022-12-23T12:00:12.102Z,1016.2
2022-12-23T12:01:55.690Z,1025
2022-12-23T12:03:39.343Z,1033.1
2022-12-23T12:05:22.790Z,1041.1
2022-12-23T12:07:06.144Z,1048.2
2022-12-23T12:08:49.595Z,1053.3
2022-12-23T12:10:32.993Z,1058.1
2022-12-23T12:12:16.314Z,1066.5
2022-12-23T12:13:59.738Z,1070.8
2022-12-23T12:15:43.163Z,1072.7
2022-12-23T12:20:52.363Z,1105.8
2022-12-23T12:22:35.826Z,1112.1
2022-12-23T12:24:19.286Z,1118.2
2022-12-23T12:26:02.644Z,1123.6
2022-12-23T12:27:45.991Z,1128.6
2022-12-23T12:29:29.383Z,1135.4
2022-12-23T12:31:12.806Z,1136.1
2022-12-23T12:32:56.208Z,1137
2022-12-23T12:36:22.466Z,1134.4
2022-12-23T12:38:06.055Z,1138.5
2022-12-23T12:39:49.454Z,1143.2
2022-12-23T12:41:32.790Z,1138.1
2022-12-23T12:43:16.286Z,1136.2
2022-12-23T12:44:59.649Z,1140.2
2022-12-23T12:46:43.000Z,1141.7
2022-12-23T12:48:26.462Z,1147.6
2022-12-23T12:51:52.928Z,1157.5
2022-12-23T12:53:36.365Z,1165.3
2022-12-23T12:55:19.696Z,1167.8
2022-12-23T12:57:03.133Z,1168.6
2022-12-23T12:58:46.486Z,1172.1
2022-12-23T13:00:29.867Z,1173.4
2022-12-23T13:02:13.237Z,1178.7
2022-12-23T13:03:56.692Z,1176.8
2022-12-23T13:07:28.475Z,1172.9
2022-12-23T13:09:23.502Z,1174.8
2022-12-23T13:10:55.425Z,1178.3
2022-12-23T13:12:33.320Z,1183.7
2022-12-23T13:14:16.583Z,1189.5
2022-12-23T13:16:00.119Z,1200
2022-12-23T13:17:43.558Z,1220.4
2022-12-23T13:19:26.927Z,1226.8
2022-12-23T13:22:53.485Z,1222.8
2022-12-23T13:24:36.800Z,1219.6
2022-12-23T13:26:20.236Z,1223.2
2022-12-23T13:28:03.588Z,1231.8
2022-12-23T13:29:47.014Z,1237.6
2022-12-23T13:31:30.367Z,1243.3
2022-12-23T13:33:13.841Z,1254.3
2022-12-23T13:34:57.229Z,1255.2
2022-12-23T13:38:23.697Z,1272.2
2022-12-23T13:40:06.924Z,1275.6
2022-12-23T13:42:00.372Z,1287.7
2022-12-23T13:43:33.854Z,1294.5
2022-12-23T13:45:17.271Z,1300.2
2022-12-23T13:47:00.651Z,1305.4
2022-12-23T13:48:44.011Z,1300
2022-12-23T13:50:27.283Z,1296.5
2022-12-23T13:55:36.678Z,1273.4
2022-12-23T13:57:20.119Z,1266
2022-12-23T13:59:03.461Z,1260.6
2022-12-23T14:00:46.867Z,1259.2
2022-12-23T14:02:30.244Z,1256.3
2022-12-23T14:04:13.600Z,1254.5
2022-12-23T14:05:57.043Z,1256.7
2022-12-23T14:07:40.459Z,1245.1
2022-12-23T14:11:06.917Z,1131.8
2022-12-23T14:12:50.343Z,1137.5
2022-12-23T14:14:33.763Z,1140
2022-12-23T14:16:17.136Z,1140.8
2022-12-23T14:18:00.824Z,1146.5
2022-12-23T14:19:43.943Z,1150.2
2022-12-23T14:21:27.338Z,1147.3
2022-12-23T14:23:10.694Z,1140.5
2022-12-23T14:28:19.966Z,1138.4
2022-12-23T14:30:03.263Z,1136.8
2022-12-23T14:31:46.722Z,1136
2022-12-23T14:33:30.144Z,1133.8
2022-12-23T14:35:13.547Z,1138.5
2022-12-23T14:36:56.943Z,1140.6
2022-12-23T14:38:40.358Z,1142.4
2022-12-23T14:40:23.739Z,1143.8
2022-12-23T14:43:50.216Z,1150.2
2022-12-23T14:45:33.639Z,1152.4
2022-12-23T14:47:16.994Z,1151.3
2022-12-23T14:49:00.424Z,1150.6
2022-12-23T14:50:43.776Z,1149.5
2022-12-23T14:52:27.246Z,1149.8
2022-12-23T14:54:10.588Z,1148.2
2022-12-23T14:55:53.979Z,1144.6
2022-12-23T14:59:20.832Z,1145.6
2022-12-23T15:01:03.853Z,1143.3
2022-12-23T15:02:47.097Z,1140.1
2022-12-23T15:04:31.150Z,1139.8
2022-12-23T15:06:14.767Z,1136.4
2022-12-23T15:07:57.421Z,1135.5
2022-12-23T15:09:40.843Z,1133.2
2022-12-23T15:11:24.192Z,1133.1
2022-12-23T15:14:51.023Z,1131.4
2022-12-23T15:16:34.460Z,1129.7
2022-12-23T15:18:17.465Z,1129.8
2022-12-23T15:20:00.992Z,1129.4
2022-12-23T15:21:45.514Z,1127
2022-12-23T15:23:28.129Z,1127.5
2022-12-23T15:25:12.316Z,1133.3
2022-12-23T15:26:54.631Z,1136
2022-12-23T15:30:20.911Z,1142.9
2022-12-23T15:32:05.815Z,1149.2
2022-12-23T15:33:48.264Z,1149
2022-12-23T15:35:32.454Z,1154
2022-12-23T15:37:14.529Z,1181.7
2022-12-23T15:38:57.779Z,1205.6
2022-12-23T15:41:03.367Z,1215.4
2022-12-23T15:42:24.735Z,1221.4
2022-12-23T15:45:51.214Z,1229.7
2022-12-23T15:47:41.891Z,1236.4
2022-12-23T15:49:18.016Z,1240.7
2022-12-23T15:51:01.408Z,1247.3
2022-12-23T15:52:44.772Z,1249
2022-12-23T15:54:28.159Z,1253.4
2022-12-23T15:56:41.298Z,1258.2
2022-12-23T15:57:55.411Z,1259.5
2022-12-23T16:01:21.641Z,1263.8
2022-12-23T16:03:06.511Z,1264.5
2022-12-23T16:04:48.598Z,1273.8
2022-12-23T16:06:32.277Z,1297.8
2022-12-23T16:08:15.051Z,1295.1
2022-12-23T16:20:18.415Z,1226.7
2022-12-23T16:40:59.473Z,1209.1
2022-12-23T16:42:43.057Z,1204.4
2022-12-23T16:47:52.228Z,1191.4
2022-12-23T16:49:35.628Z,1190.1
2022-12-23T16:51:18.924Z,1186.5
2022-12-23T16:53:02.436Z,1184.8
2022-12-23T16:54:45.781Z,1183.1
2022-12-23T16:56:29.230Z,1180.5
2022-12-23T16:58:12.594Z,1176.8
2022-12-23T16:59:55.949Z,1178.5
2022-12-23T17:03:22.442Z,1174.8
2022-12-23T17:05:05.927Z,1177.6
2022-12-23T17:06:49.237Z,1175.6
2022-12-23T17:08:32.638Z,1171.6
2022-12-23T17:10:16.078Z,1171.1
2022-12-23T17:11:59.411Z,1172.2
2022-12-23T17:13:42.836Z,1169.4
2022-12-23T17:15:26.227Z,1166.3
2022-12-23T17:18:52.703Z,1161.1
2022-12-23T17:20:36.091Z,1160.8
2022-12-23T17:22:19.586Z,1163.2
2022-12-23T17:24:02.861Z,1156.4
2022-12-23T17:25:46.256Z,1152.8
2022-12-23T17:27:29.672Z,1152.7
2022-12-23T17:29:13.097Z,1151.7
2022-12-23T17:30:56.498Z,1152.6
2022-12-23T17:32:39.855Z,1161.2
2022-12-23T17:34:23.538Z,1166.6
2022-12-23T17:36:06.867Z,1168.3
2022-12-23T17:37:50.430Z,1171.6
2022-12-23T17:39:33.787Z,1173.7
2022-12-23T17:41:17.186Z,1174.7
2022-12-23T17:43:00.569Z,1170.7
2022-12-23T17:44:43.777Z,1168.6
2022-12-23T17:46:27.339Z,1166.1
2022-12-23T17:49:53.637Z,1164.1
2022-12-23T17:51:37.245Z,1164.8
2022-12-23T17:53:20.687Z,1166.5
2022-12-23T17:55:03.982Z,1165.1
2022-12-23T17:56:47.391Z,1166.8
2022-12-23T17:58:30.850Z,1166
2022-12-23T18:00:14.230Z,1159.1
2022-12-23T18:01:57.450Z,1151.2
2022-12-23T18:07:06.824Z,1155.4
2022-12-23T18:08:50.052Z,1157.1
2022-12-23T18:10:33.468Z,1158.7
2022-12-23T18:12:16.851Z,1162.6
2022-12-23T18:14:00.223Z,1161.4
2022-12-23T18:15:43.700Z,1158.3
2022-12-23T18:17:27.093Z,1156.3
2022-12-23T18:19:10.535Z,1153.8
2022-12-23T18:20:54.262Z,1151.2
2022-12-23T18:22:37.643Z,1148.2
2022-12-23T18:24:20.964Z,1146.1
2022-12-23T18:26:04.406Z,1142.5
2022-12-23T18:27:47.741Z,1141.8
2022-12-23T18:29:31.107Z,1138.5
2022-12-23T18:31:14.490Z,1137.3
2022-12-23T18:32:57.949Z,1134
2022-12-23T18:36:24.460Z,1133.1
2022-12-23T18:38:07.814Z,1134.4
2022-12-23T18:39:51.172Z,1133.7
2022-12-23T18:41:34.727Z,1131.5
2022-12-23T18:43:17.975Z,1131.6
2022-12-23T18:45:01.376Z,1137.2
2022-12-23T18:46:44.780Z,1141.2
2022-12-23T18:48:28.243Z,1144.1
2022-12-23T18:51:54.701Z,1144
2022-12-23T18:53:38.006Z,1144.7
2022-12-23T18:55:21.401Z,1150.4
2022-12-23T18:57:04.900Z,1159.6
2022-12-23T18:58:48.307Z,1165.3
2022-12-23T19:00:31.633Z,1168.5
2022-12-23T19:02:14.985Z,1172.2
2022-12-23T19:03:58.396Z,1178
2022-12-23T19:07:24.879Z,1184.1
2022-12-23T19:09:08.263Z,1188
2022-12-23T19:10:51.705Z,1189.2
2022-12-23T19:12:35.047Z,1197.5
2022-12-23T19:14:18.452Z,1215.5
2022-12-23T19:16:01.833Z,1220
2022-12-23T19:17:45.236Z,1225.2
2022-12-23T19:19:28.632Z,1229
2022-12-23T19:22:55.121Z,1229.3
2022-12-23T19:24:38.503Z,1227.7
2022-12-23T19:26:21.910Z,1229.1
2022-12-23T19:28:05.299Z,1230
2022-12-23T19:29:48.687Z,1228.7
2022-12-23T19:31:32.136Z,1233.2
2022-12-23T19:33:15.554Z,1233
2022-12-23T19:34:59.038Z,1232.2
2022-12-23T19:38:25.493Z,1236.3
2022-12-23T19:40:08.906Z,1239.4
2022-12-23T19:41:52.307Z,1243.8
2022-12-23T19:43:35.613Z,1243.8
2022-12-23T19:45:18.948Z,1243.1
2022-12-23T19:47:02.434Z,1244.6
2022-12-23T19:48:45.903Z,1246
2022-12-23T19:50:29.208Z,1245
2022-12-23T19:52:12.993Z,1247.1
2022-12-23T19:53:56.379Z,1244.8
2022-12-23T19:55:39.743Z,1244.1
2022-12-23T19:57:23.123Z,1245.4
2022-12-23T19:59:06.504Z,1246.1
2022-12-23T20:00:50.030Z,1249.3
2022-12-23T20:02:33.293Z,1250.7
2022-12-23T20:04:16.804Z,1252.5
2022-12-23T20:07:43.218Z,1259.6
2022-12-23T20:09:26.545Z,1264.4
2022-12-23T20:11:09.896Z,1264.3
2022-12-23T20:12:53.433Z,1269.6
2022-12-23T20:14:36.677Z,1274.3
2022-12-23T20:16:20.113Z,1279
2022-12-23T20:18:03.500Z,1287.1
2022-12-23T20:19:46.926Z,1302.5
2022-12-23T20:23:13.350Z,1295.4
2022-12-23T20:24:56.733Z,1296.7
2022-12-23T20:26:40.231Z,1297.3
2022-12-23T20:28:23.550Z,1296.6
2022-12-23T20:30:06.965Z,1298.4
2022-12-23T20:31:50.436Z,1297.1
2022-12-23T20:33:33.726Z,1294.1
2022-12-23T20:35:17.169Z,1289.4
2022-12-23T20:40:26.402Z,1284.6
2022-12-23T20:42:09.789Z,1282.8
2022-12-23T20:43:53.151Z,1283.5
2022-12-23T20:45:36.551Z,1281.8
2022-12-23T20:47:20.019Z,1281.8
2022-12-23T20:49:03.351Z,1281.7
2022-12-23T20:50:46.758Z,1280.4
2022-12-23T20:52:30.169Z,1280.8
2022-12-23T20:57:39.406Z,1278.4
2022-12-23T20:59:22.786Z,1276.7
2022-12-23T21:01:06.172Z,1274.4
2022-12-23T21:02:49.671Z,1272.7
2022-12-23T21:04:32.961Z,1269.3
2022-12-23T21:06:16.365Z,1264.7
2022-12-23T21:07:59.760Z,1266.8
2022-12-23T21:09:43.249Z,1267.7
2022-12-23T21:11:26.848Z,1270.2
2022-12-23T21:13:10.405Z,1271.4
2022-12-23T21:14:53.647Z,1269.5
2022-12-23T21:16:37.045Z,1270.4
2022-12-23T21:18:20.442Z,1269.1
2022-12-23T21:20:03.824Z,1267.7
2022-12-23T21:21:47.332Z,1266.3
2022-12-23T21:23:30.630Z,1268.2
2022-12-23T21:26:57.112Z,1267.1
2022-12-23T21:28:40.512Z,1265.6
2022-12-23T21:30:23.890Z,1263.3
2022-12-23T21:32:07.361Z,1261.5
2022-12-23T21:33:50.723Z,1261.8
2022-12-23T21:35:34.095Z,1262.3
2022-12-23T21:37:17.489Z,1262
2022-12-23T21:39:00.894Z,1265.1
2022-12-23T21:42:27.403Z,1263.9
2022-12-23T21:44:10.750Z,1260.4
2022-12-23T21:45:54.126Z,1258.8
2022-12-23T21:47:37.527Z,1260.6
2022-12-23T21:49:21.125Z,1260.5
2022-12-23T21:51:04.316Z,1262
2022-12-23T21:52:47.721Z,1258.8
2022-12-23T21:54:31.146Z,1257.6
2022-12-23T21:57:57.576Z,1259.4
2022-12-23T21:59:41.176Z,1259.2
2022-12-23T22:01:24.368Z,1259.8
2022-12-23T22:03:07.767Z,1260.4
2022-12-23T22:04:51.160Z,1260.2
2022-12-23T22:06:34.587Z,1257.5
2022-12-23T22:08:18.113Z,1256.5
2022-12-23T22:10:01.459Z,1259
2022-12-23T22:13:27.858Z,1263.3
2022-12-23T22:15:11.233Z,1264.4
2022-12-23T22:16:54.659Z,1262.3
2022-12-23T22:18:38.205Z,1261.3
2022-12-23T22:20:21.484Z,1262.6
2022-12-23T22:22:04.872Z,1260.2
2022-12-23T22:23:48.354Z,1257
2022-12-23T22:25:31.733Z,1257.8
2022-12-23T22:30:40.896Z,1262.4
2022-12-23T22:32:24.444Z,1263.2
2022-12-23T22:34:07.703Z,1263.3
2022-12-23T22:35:51.089Z,1263.2
2022-12-23T22:37:34.504Z,1262.5
2022-12-23T22:39:17.867Z,1261.5
2022-12-23T22:41:01.229Z,1260.5
2022-12-23T22:42:44.731Z,1261.7
2022-12-23T22:44:28.371Z,1261.7
2022-12-23T22:46:11.722Z,1259.1
2022-12-23T22:47:55.114Z,1259.2
2022-12-23T22:49:38.589Z,1258.7
2022-12-23T22:51:22.016Z,1256.8
2022-12-23T22:53:05.306Z,1256
2022-12-23T22:54:48.688Z,1255.6
2022-12-23T22:56:32.198Z,1253.5
2022-12-23T22:59:58.591Z,1249.7
2022-12-23T23:01:42.054Z,1249.7
2022-12-23T23:03:25.371Z,1249.2
2022-12-23T23:05:08.819Z,1247.6
2022-12-23T23:06:52.150Z,1244.6
2022-12-23T23:08:35.546Z,1243.1
2022-12-23T23:10:18.957Z,1242.2
2022-12-23T23:12:02.388Z,1241.7
2022-12-23T23:13:46.053Z,1242
2022-12-23T23:15:29.452Z,1246.4
2022-12-23T23:17:12.844Z,1248.3
2022-12-23T23:18:56.257Z,1256.4
2022-12-23T23:20:39.646Z,1256.5
2022-12-23T23:22:23.040Z,1249
2022-12-23T23:24:06.459Z,1246.2
2022-12-23T23:25:49.821Z,1247
2022-12-23T23:29:16.315Z,1229.6
2022-12-23T23:30:59.688Z,1215.6
2022-12-23T23:32:43.118Z,1197
2022-12-23T23:34:26.570Z,1177
2022-12-23T23:36:09.888Z,1172
2022-12-23T23:37:53.286Z,1173.3
2022-12-23T23:39:36.748Z,1181.1
2022-12-23T23:41:20.113Z,1192.7
2022-12-23T23:44:46.539Z,1209.2
2022-12-23T23:46:29.947Z,1215.8
2022-12-23T23:48:13.336Z,1219.1
2022-12-23T23:49:56.746Z,1223.5
2022-12-23T23:51:40.142Z,1231.7
2022-12-23T23:53:23.533Z,1237.5
2022-12-23T23:55:06.923Z,1240.7
2022-12-23T23:56:50.324Z,1241.3
